sensor_id;sensor_type;location;lat;lon;timestamp;temperature;humidity
9800;DHT22;4939;52.00085300;4.17406100;2023-07-28T00:00:16;18.80;99.90
9800;DHT22;4939;52.00085300;4.17406100;2023-07-28T00:02:42;18.80;99.90
9800;DHT22;4939;52.00085300;4.17406100;2023-07-28T00:05:07;18.80;99.90
9800;DHT22;4939;52.00085300;4.17406100;2023-07-28T00:07:33;18.70;99.90
9800;DHT22;4939;52.00085300;4.17406100;2023-07-28T00:10:01;18.80;99.90
9800;DHT22;4939;52.00085300;4.17406100;2023-07-28T00:12:26;18.90;99.90
9800;DHT22;4939;52.00085300;4.17406100;2023-07-28T00:14:52;18.80;99.90
9800;DHT22;4939;52.00085300;4.17406100;2023-07-28T00:17:18;18.80;99.90
9800;DHT22;4939;52.00085300;4.17406100;2023-07-28T00:19:43;18.70;99.90
9800;DHT22;4939;52.00085300;4.17406100;2023-07-28T00:22:09;18.70;99.90
9800;DHT22;4939;52.00085300;4.17406100;2023-07-28T00:24:35;18.90;99.90
9800;DHT22;4939;52.00085300;4.17406100;2023-07-28T00:27:00;18.80;99.90
9800;DHT22;4939;52.00085300;4.17406100;2023-07-28T00:29:26;18.80;99.90
9800;DHT22;4939;52.00085300;4.17406100;2023-07-28T00:31:51;18.80;99.90
9800;DHT22;4939;52.00085300;4.17406100;2023-07-28T00:34:18;18.80;99.90
9800;DHT22;4939;52.00085300;4.17406100;2023-07-28T00:36:44;19.70;99.90
9800;DHT22;4939;52.00085300;4.17406100;2023-07-28T00:39:09;18.80;99.90
9800;DHT22;4939;52.00085300;4.17406100;2023-07-28T00:41:35;18.80;99.90
9800;DHT22;4939;52.00085300;4.17406100;2023-07-28T00:44:00;18.80;99.90
9800;DHT22;4939;52.00085300;4.17406100;2023-07-28T00:46:26;18.90;99.90
9800;DHT22;4939;52.00085300;4.17406100;2023-07-28T00:48:52;18.90;99.90
9800;DHT22;4939;52.00085300;4.17406100;2023-07-28T00:51:18;18.90;99.90
9800;DHT22;4939;52.00085300;4.17406100;2023-07-28T00:53:45;18.90;99.90
9800;DHT22;4939;52.00085300;4.17406100;2023-07-28T00:56:11;18.90;99.90
9800;DHT22;4939;52.00085300;4.17406100;2023-07-28T00:58:37;18.90;99.90
9800;DHT22;4939;52.00085300;4.17406100;2023-07-28T01:01:03;19.00;99.90
9800;DHT22;4939;52.00085300;4.17406100;2023-07-28T01:03:28;19.00;99.90
9800;DHT22;4939;52.00085300;4.17406100;2023-07-28T01:08:49;18.90;99.90
9800;DHT22;4939;52.00085300;4.17406100;2023-07-28T01:11:15;19.00;99.90
9800;DHT22;4939;52.00085300;4.17406100;2023-07-28T01:13:40;19.00;99.90
9800;DHT22;4939;52.00085300;4.17406100;2023-07-28T01:16:07;19.10;99.90
9800;DHT22;4939;52.00085300;4.17406100;2023-07-28T01:18:33;19.00;99.90
9800;DHT22;4939;52.00085300;4.17406100;2023-07-28T01:21:02;19.00;99.90
9800;DHT22;4939;52.00085300;4.17406100;2023-07-28T01:23:50;19.00;99.90
9800;DHT22;4939;52.00085300;4.17406100;2023-07-28T01:26:29;19.10;99.90
9800;DHT22;4939;52.00085300;4.17406100;2023-07-28T01:28:55;19.10;99.90
9800;DHT22;4939;52.00085300;4.17406100;2023-07-28T01:31:21;19.10;99.90
9800;DHT22;4939;52.00085300;4.17406100;2023-07-28T01:33:47;19.00;99.90
9800;DHT22;4939;52.00085300;4.17406100;2023-07-28T01:36:12;20.00;99.90
9800;DHT22;4939;52.00085300;4.17406100;2023-07-28T01:38:38;19.10;99.90
9800;DHT22;4939;52.00085300;4.17406100;2023-07-28T01:41:04;19.10;99.90
9800;DHT22;4939;52.00085300;4.17406100;2023-07-28T01:43:30;19.10;99.90
9800;DHT22;4939;52.00085300;4.17406100;2023-07-28T01:45:55;19.00;99.90
9800;DHT22;4939;52.00085300;4.17406100;2023-07-28T01:48:22;19.10;99.90
9800;DHT22;4939;52.00085300;4.17406100;2023-07-28T01:50:48;19.10;99.90
9800;DHT22;4939;52.00085300;4.17406100;2023-07-28T01:53:13;19.10;99.90
9800;DHT22;4939;52.00085300;4.17406100;2023-07-28T01:55:39;19.00;99.90
9800;DHT22;4939;52.00085300;4.17406100;2023-07-28T01:58:05;19.00;99.90
9800;DHT22;4939;52.00085300;4.17406100;2023-07-28T02:00:31;19.00;99.90
9800;DHT22;4939;52.00085300;4.17406100;2023-07-28T02:02:57;19.00;99.90
9800;DHT22;4939;52.00085300;4.17406100;2023-07-28T02:05:24;19.00;99.90
9800;DHT22;4939;52.00085300;4.17406100;2023-07-28T02:07:49;20.50;99.90
9800;DHT22;4939;52.00085300;4.17406100;2023-07-28T02:10:15;18.90;99.90
9800;DHT22;4939;52.00085300;4.17406100;2023-07-28T02:12:41;19.30;99.90
9800;DHT22;4939;52.00085300;4.17406100;2023-07-28T02:15:07;18.90;99.90
9800;DHT22;4939;52.00085300;4.17406100;2023-07-28T02:17:33;19.00;99.90
9800;DHT22;4939;52.00085300;4.17406100;2023-07-28T02:19:59;19.00;99.90
9800;DHT22;4939;52.00085300;4.17406100;2023-07-28T02:22:24;19.00;99.90
9800;DHT22;4939;52.00085300;4.17406100;2023-07-28T02:24:50;19.90;99.90
9800;DHT22;4939;52.00085300;4.17406100;2023-07-28T02:27:16;19.00;99.90
9800;DHT22;4939;52.00085300;4.17406100;2023-07-28T02:29:41;17.80;99.90
9800;DHT22;4939;52.00085300;4.17406100;2023-07-28T02:32:07;19.30;99.90
9800;DHT22;4939;52.00085300;4.17406100;2023-07-28T02:34:33;18.90;99.90
9800;DHT22;4939;52.00085300;4.17406100;2023-07-28T02:36:59;21.60;99.90
9800;DHT22;4939;52.00085300;4.17406100;2023-07-28T02:39:24;19.00;99.90
9800;DHT22;4939;52.00085300;4.17406100;2023-07-28T02:41:50;19.00;99.90
9800;DHT22;4939;52.00085300;4.17406100;2023-07-28T02:44:16;19.00;99.90
9800;DHT22;4939;52.00085300;4.17406100;2023-07-28T02:46:41;18.90;99.90
9800;DHT22;4939;52.00085300;4.17406100;2023-07-28T02:49:07;19.70;99.90
9800;DHT22;4939;52.00085300;4.17406100;2023-07-28T02:51:33;21.10;99.90
9800;DHT22;4939;52.00085300;4.17406100;2023-07-28T02:54:00;20.50;99.90
9800;DHT22;4939;52.00085300;4.17406100;2023-07-28T02:56:25;19.00;99.90
9800;DHT22;4939;52.00085300;4.17406100;2023-07-28T02:58:51;19.00;99.90
9800;DHT22;4939;52.00085300;4.17406100;2023-07-28T03:01:17;19.00;99.90
9800;DHT22;4939;52.00085300;4.17406100;2023-07-28T03:03:43;19.00;99.90
9800;DHT22;4939;52.00085300;4.17406100;2023-07-28T03:06:09;21.50;99.90
9800;DHT22;4939;52.00085300;4.17406100;2023-07-28T03:08:35;19.00;99.90
9800;DHT22;4939;52.00085300;4.17406100;2023-07-28T03:11:00;19.00;99.90
9800;DHT22;4939;52.00085300;4.17406100;2023-07-28T03:13:30;19.00;99.90
9800;DHT22;4939;52.00085300;4.17406100;2023-07-28T03:15:56;19.00;99.90
9800;DHT22;4939;52.00085300;4.17406100;2023-07-28T03:18:21;19.00;99.90
9800;DHT22;4939;52.00085300;4.17406100;2023-07-28T03:20:47;19.00;99.90
9800;DHT22;4939;52.00085300;4.17406100;2023-07-28T03:23:13;19.00;99.90
9800;DHT22;4939;52.00085300;4.17406100;2023-07-28T03:25:38;19.00;99.90
9800;DHT22;4939;52.00085300;4.17406100;2023-07-28T03:28:04;19.00;99.90
9800;DHT22;4939;52.00085300;4.17406100;2023-07-28T03:30:30;19.00;99.90
9800;DHT22;4939;52.00085300;4.17406100;2023-07-28T03:32:55;19.00;99.90
9800;DHT22;4939;52.00085300;4.17406100;2023-07-28T03:35:23;18.80;99.90
9800;DHT22;4939;52.00085300;4.17406100;2023-07-28T03:37:49;19.00;99.90
9800;DHT22;4939;52.00085300;4.17406100;2023-07-28T03:40:14;19.10;99.90
9800;DHT22;4939;52.00085300;4.17406100;2023-07-28T03:42:41;19.10;99.90
9800;DHT22;4939;52.00085300;4.17406100;2023-07-28T03:45:07;19.00;99.90
9800;DHT22;4939;52.00085300;4.17406100;2023-07-28T03:47:33;19.10;99.90
9800;DHT22;4939;52.00085300;4.17406100;2023-07-28T03:49:59;19.00;99.90
9800;DHT22;4939;52.00085300;4.17406100;2023-07-28T03:52:24;19.00;99.90
9800;DHT22;4939;52.00085300;4.17406100;2023-07-28T03:54:50;19.00;99.90
9800;DHT22;4939;52.00085300;4.17406100;2023-07-28T03:57:16;19.00;99.90
9800;DHT22;4939;52.00085300;4.17406100;2023-07-28T03:59:41;19.00;99.90
9800;DHT22;4939;52.00085300;4.17406100;2023-07-28T04:02:07;19.10;99.90
9800;DHT22;4939;52.00085300;4.17406100;2023-07-28T04:04:32;19.10;99.90
9800;DHT22;4939;52.00085300;4.17406100;2023-07-28T04:06:58;19.10;99.90
9800;DHT22;4939;52.00085300;4.17406100;2023-07-28T04:09:24;19.00;99.90
9800;DHT22;4939;52.00085300;4.17406100;2023-07-28T04:11:49;19.00;99.90
9800;DHT22;4939;52.00085300;4.17406100;2023-07-28T04:14:15;19.00;99.90
9800;DHT22;4939;52.00085300;4.17406100;2023-07-28T04:16:41;19.00;99.90
9800;DHT22;4939;52.00085300;4.17406100;2023-07-28T04:19:06;19.10;99.90
9800;DHT22;4939;52.00085300;4.17406100;2023-07-28T04:21:32;19.40;99.90
9800;DHT22;4939;52.00085300;4.17406100;2023-07-28T04:23:58;19.20;99.90
9800;DHT22;4939;52.00085300;4.17406100;2023-07-28T04:26:24;19.10;99.90
9800;DHT22;4939;52.00085300;4.17406100;2023-07-28T04:28:50;19.20;99.90
9800;DHT22;4939;52.00085300;4.17406100;2023-07-28T04:31:16;19.10;99.90
9800;DHT22;4939;52.00085300;4.17406100;2023-07-28T04:33:42;19.10;99.90
9800;DHT22;4939;52.00085300;4.17406100;2023-07-28T04:36:08;19.20;99.90
9800;DHT22;4939;52.00085300;4.17406100;2023-07-28T04:38:34;19.20;99.90
9800;DHT22;4939;52.00085300;4.17406100;2023-07-28T04:41:00;19.10;99.90
9800;DHT22;4939;52.00085300;4.17406100;2023-07-28T04:43:25;19.10;99.90
9800;DHT22;4939;52.00085300;4.17406100;2023-07-28T04:45:51;19.10;99.90
9800;DHT22;4939;52.00085300;4.17406100;2023-07-28T04:48:16;19.10;99.90
9800;DHT22;4939;52.00085300;4.17406100;2023-07-28T04:50:42;19.20;99.90
9800;DHT22;4939;52.00085300;4.17406100;2023-07-28T04:53:08;19.10;99.90
9800;DHT22;4939;52.00085300;4.17406100;2023-07-28T04:55:33;19.20;99.90
9800;DHT22;4939;52.00085300;4.17406100;2023-07-28T04:57:59;19.10;99.90
9800;DHT22;4939;52.00085300;4.17406100;2023-07-28T05:00:24;19.20;99.90
9800;DHT22;4939;52.00085300;4.17406100;2023-07-28T05:02:50;19.30;99.90
9800;DHT22;4939;52.00085300;4.17406100;2023-07-28T05:05:16;19.20;99.90
9800;DHT22;4939;52.00085300;4.17406100;2023-07-28T05:07:42;19.50;99.90
9800;DHT22;4939;52.00085300;4.17406100;2023-07-28T05:10:08;19.10;99.90
9800;DHT22;4939;52.00085300;4.17406100;2023-07-28T05:12:33;19.10;99.90
9800;DHT22;4939;52.00085300;4.17406100;2023-07-28T05:14:59;19.10;99.90
9800;DHT22;4939;52.00085300;4.17406100;2023-07-28T05:17:25;19.20;99.90
9800;DHT22;4939;52.00085300;4.17406100;2023-07-28T05:19:50;19.30;99.90
9800;DHT22;4939;52.00085300;4.17406100;2023-07-28T05:22:16;19.40;99.90
9800;DHT22;4939;52.00085300;4.17406100;2023-07-28T05:24:42;19.20;99.90
9800;DHT22;4939;52.00085300;4.17406100;2023-07-28T05:27:10;19.40;99.90
9800;DHT22;4939;52.00085300;4.17406100;2023-07-28T05:29:35;19.20;99.90
9800;DHT22;4939;52.00085300;4.17406100;2023-07-28T05:32:01;19.20;99.90
9800;DHT22;4939;52.00085300;4.17406100;2023-07-28T05:34:27;19.20;99.90
9800;DHT22;4939;52.00085300;4.17406100;2023-07-28T05:36:52;19.30;99.90
9800;DHT22;4939;52.00085300;4.17406100;2023-07-28T05:39:18;19.10;99.90
9800;DHT22;4939;52.00085300;4.17406100;2023-07-28T05:41:44;19.20;99.90
9800;DHT22;4939;52.00085300;4.17406100;2023-07-28T05:44:09;19.20;99.90
9800;DHT22;4939;52.00085300;4.17406100;2023-07-28T05:46:35;19.20;99.90
9800;DHT22;4939;52.00085300;4.17406100;2023-07-28T05:49:00;19.20;99.90
9800;DHT22;4939;52.00085300;4.17406100;2023-07-28T05:51:26;19.20;99.90
9800;DHT22;4939;52.00085300;4.17406100;2023-07-28T05:53:52;19.20;99.90
9800;DHT22;4939;52.00085300;4.17406100;2023-07-28T05:56:17;19.20;99.90
9800;DHT22;4939;52.00085300;4.17406100;2023-07-28T05:58:48;19.30;99.90
9800;DHT22;4939;52.00085300;4.17406100;2023-07-28T06:01:13;19.30;99.90
9800;DHT22;4939;52.00085300;4.17406100;2023-07-28T06:03:39;20.60;99.90
9800;DHT22;4939;52.00085300;4.17406100;2023-07-28T06:06:05;21.50;99.90
9800;DHT22;4939;52.00085300;4.17406100;2023-07-28T06:08:31;19.20;99.90
9800;DHT22;4939;52.00085300;4.17406100;2023-07-28T06:10:56;19.30;99.90
9800;DHT22;4939;52.00085300;4.17406100;2023-07-28T06:13:23;19.30;99.90
9800;DHT22;4939;52.00085300;4.17406100;2023-07-28T06:15:49;19.30;99.90
9800;DHT22;4939;52.00085300;4.17406100;2023-07-28T06:18:14;19.40;99.90
9800;DHT22;4939;52.00085300;4.17406100;2023-07-28T06:20:42;19.40;99.90
9800;DHT22;4939;52.00085300;4.17406100;2023-07-28T06:23:08;19.40;99.90
9800;DHT22;4939;52.00085300;4.17406100;2023-07-28T06:25:33;19.40;99.90
9800;DHT22;4939;52.00085300;4.17406100;2023-07-28T06:27:59;19.40;99.90
9800;DHT22;4939;52.00085300;4.17406100;2023-07-28T06:30:25;19.40;99.90
9800;DHT22;4939;52.00085300;4.17406100;2023-07-28T06:32:51;19.40;99.90
9800;DHT22;4939;52.00085300;4.17406100;2023-07-28T06:35:17;19.40;99.90
9800;DHT22;4939;52.00085300;4.17406100;2023-07-28T06:37:43;19.40;99.90
9800;DHT22;4939;52.00085300;4.17406100;2023-07-28T06:40:09;20.10;99.90
9800;DHT22;4939;52.00085300;4.17406100;2023-07-28T06:42:36;19.40;99.90
9800;DHT22;4939;52.00085300;4.17406100;2023-07-28T06:45:02;19.50;99.90
9800;DHT22;4939;52.00085300;4.17406100;2023-07-28T06:47:29;19.50;99.90
9800;DHT22;4939;52.00085300;4.17406100;2023-07-28T06:49:55;19.50;99.90
9800;DHT22;4939;52.00085300;4.17406100;2023-07-28T06:52:20;19.50;99.90
9800;DHT22;4939;52.00085300;4.17406100;2023-07-28T06:54:47;19.50;99.90
9800;DHT22;4939;52.00085300;4.17406100;2023-07-28T06:57:14;19.50;99.90
9800;DHT22;4939;52.00085300;4.17406100;2023-07-28T06:59:40;19.60;99.90
9800;DHT22;4939;52.00085300;4.17406100;2023-07-28T07:02:07;19.60;99.90
9800;DHT22;4939;52.00085300;4.17406100;2023-07-28T07:04:33;19.70;99.90
9800;DHT22;4939;52.00085300;4.17406100;2023-07-28T07:06:59;19.70;99.90
9800;DHT22;4939;52.00085300;4.17406100;2023-07-28T07:09:24;19.70;99.90
9800;DHT22;4939;52.00085300;4.17406100;2023-07-28T07:11:50;19.70;99.90
9800;DHT22;4939;52.00085300;4.17406100;2023-07-28T07:14:16;19.80;99.90
9800;DHT22;4939;52.00085300;4.17406100;2023-07-28T07:16:42;19.90;99.90
9800;DHT22;4939;52.00085300;4.17406100;2023-07-28T07:19:08;20.00;99.90
9800;DHT22;4939;52.00085300;4.17406100;2023-07-28T07:21:34;20.00;99.90
9800;DHT22;4939;52.00085300;4.17406100;2023-07-28T07:24:00;20.10;99.90
9800;DHT22;4939;52.00085300;4.17406100;2023-07-28T07:26:26;20.10;99.90
9800;DHT22;4939;52.00085300;4.17406100;2023-07-28T07:28:52;20.10;99.90
9800;DHT22;4939;52.00085300;4.17406100;2023-07-28T07:31:18;21.90;99.90
9800;DHT22;4939;52.00085300;4.17406100;2023-07-28T07:33:44;20.20;99.90
9800;DHT22;4939;52.00085300;4.17406100;2023-07-28T07:36:14;20.20;99.90
9800;DHT22;4939;52.00085300;4.17406100;2023-07-28T07:38:40;20.40;99.90
9800;DHT22;4939;52.00085300;4.17406100;2023-07-28T07:41:07;20.30;99.90
9800;DHT22;4939;52.00085300;4.17406100;2023-07-28T07:43:34;20.30;99.90
9800;DHT22;4939;52.00085300;4.17406100;2023-07-28T07:45:59;20.20;99.90
9800;DHT22;4939;52.00085300;4.17406100;2023-07-28T07:48:25;20.20;99.90
9800;DHT22;4939;52.00085300;4.17406100;2023-07-28T07:50:51;20.20;99.90
9800;DHT22;4939;52.00085300;4.17406100;2023-07-28T07:53:17;20.20;99.90
9800;DHT22;4939;52.00085300;4.17406100;2023-07-28T07:55:43;20.20;99.90
9800;DHT22;4939;52.00085300;4.17406100;2023-07-28T07:58:09;20.20;99.90
9800;DHT22;4939;52.00085300;4.17406100;2023-07-28T08:00:37;20.30;99.90
9800;DHT22;4939;52.00085300;4.17406100;2023-07-28T08:03:03;20.30;99.90
9800;DHT22;4939;52.00085300;4.17406100;2023-07-28T08:05:30;20.30;99.90
9800;DHT22;4939;52.00085300;4.17406100;2023-07-28T08:07:56;20.30;99.90
9800;DHT22;4939;52.00085300;4.17406100;2023-07-28T08:10:22;20.30;99.90
9800;DHT22;4939;52.00085300;4.17406100;2023-07-28T08:12:48;20.30;99.90
9800;DHT22;4939;52.00085300;4.17406100;2023-07-28T08:15:14;20.30;99.90
9800;DHT22;4939;52.00085300;4.17406100;2023-07-28T08:17:39;20.30;99.90
9800;DHT22;4939;52.00085300;4.17406100;2023-07-28T08:20:08;20.40;99.90
9800;DHT22;4939;52.00085300;4.17406100;2023-07-28T08:22:34;20.40;99.90
9800;DHT22;4939;52.00085300;4.17406100;2023-07-28T08:25:00;20.50;99.90
9800;DHT22;4939;52.00085300;4.17406100;2023-07-28T08:27:26;20.60;99.90
9800;DHT22;4939;52.00085300;4.17406100;2023-07-28T08:29:52;20.50;99.90
9800;DHT22;4939;52.00085300;4.17406100;2023-07-28T08:32:17;20.50;99.90
9800;DHT22;4939;52.00085300;4.17406100;2023-07-28T08:34:43;21.10;99.90
9800;DHT22;4939;52.00085300;4.17406100;2023-07-28T08:37:09;20.40;99.90
9800;DHT22;4939;52.00085300;4.17406100;2023-07-28T08:39:34;20.40;99.90
9800;DHT22;4939;52.00085300;4.17406100;2023-07-28T08:42:01;20.40;99.90
9800;DHT22;4939;52.00085300;4.17406100;2023-07-28T08:44:31;20.40;99.90
9800;DHT22;4939;52.00085300;4.17406100;2023-07-28T08:47:01;20.50;99.90
9800;DHT22;4939;52.00085300;4.17406100;2023-07-28T08:49:27;20.50;99.90
9800;DHT22;4939;52.00085300;4.17406100;2023-07-28T08:51:58;20.40;99.90
9800;DHT22;4939;52.00085300;4.17406100;2023-07-28T08:54:24;20.30;99.90
9800;DHT22;4939;52.00085300;4.17406100;2023-07-28T08:56:49;20.30;99.90
9800;DHT22;4939;52.00085300;4.17406100;2023-07-28T08:59:27;20.30;99.90
9800;DHT22;4939;52.00085300;4.17406100;2023-07-28T09:01:54;20.30;99.90
9800;DHT22;4939;52.00085300;4.17406100;2023-07-28T09:04:21;20.30;99.90
9800;DHT22;4939;52.00085300;4.17406100;2023-07-28T09:06:48;20.30;99.90
9800;DHT22;4939;52.00085300;4.17406100;2023-07-28T09:09:15;20.30;99.90
9800;DHT22;4939;52.00085300;4.17406100;2023-07-28T09:11:54;20.30;99.90
9800;DHT22;4939;52.00085300;4.17406100;2023-07-28T09:14:21;20.20;99.90
9800;DHT22;4939;52.00085300;4.17406100;2023-07-28T09:16:49;20.30;99.90
9800;DHT22;4939;52.00085300;4.17406100;2023-07-28T09:19:15;20.40;99.90
9800;DHT22;4939;52.00085300;4.17406100;2023-07-28T09:21:44;20.50;99.90
9800;DHT22;4939;52.00085300;4.17406100;2023-07-28T09:24:13;19.50;99.90
9800;DHT22;4939;52.00085300;4.17406100;2023-07-28T09:26:44;20.80;99.90
9800;DHT22;4939;52.00085300;4.17406100;2023-07-28T09:29:20;20.90;99.90
9800;DHT22;4939;52.00085300;4.17406100;2023-07-28T09:31:47;20.90;99.90
9800;DHT22;4939;52.00085300;4.17406100;2023-07-28T09:34:27;20.80;99.90
9800;DHT22;4939;52.00085300;4.17406100;2023-07-28T09:36:58;20.70;99.90
9800;DHT22;4939;52.00085300;4.17406100;2023-07-28T09:39:24;20.70;99.90
9800;DHT22;4939;52.00085300;4.17406100;2023-07-28T09:41:51;20.60;99.90
9800;DHT22;4939;52.00085300;4.17406100;2023-07-28T09:44:17;20.70;99.90
9800;DHT22;4939;52.00085300;4.17406100;2023-07-28T09:47:03;20.70;99.90
9800;DHT22;4939;52.00085300;4.17406100;2023-07-28T09:49:35;21.00;99.90
9800;DHT22;4939;52.00085300;4.17406100;2023-07-28T09:52:08;21.20;99.90
9800;DHT22;4939;52.00085300;4.17406100;2023-07-28T09:54:39;21.50;99.90
9800;DHT22;4939;52.00085300;4.17406100;2023-07-28T09:57:11;21.60;99.90
9800;DHT22;4939;52.00085300;4.17406100;2023-07-28T09:59:40;21.90;99.90
9800;DHT22;4939;52.00085300;4.17406100;2023-07-28T10:02:07;22.20;99.90
9800;DHT22;4939;52.00085300;4.17406100;2023-07-28T10:04:33;22.50;99.90
9800;DHT22;4939;52.00085300;4.17406100;2023-07-28T10:07:00;23.00;99.90
9800;DHT22;4939;52.00085300;4.17406100;2023-07-28T10:09:28;23.30;99.90
9800;DHT22;4939;52.00085300;4.17406100;2023-07-28T10:11:56;23.20;99.90
9800;DHT22;4939;52.00085300;4.17406100;2023-07-28T10:14:29;23.20;99.90
9800;DHT22;4939;52.00085300;4.17406100;2023-07-28T10:16:57;23.20;99.90
9800;DHT22;4939;52.00085300;4.17406100;2023-07-28T10:19:26;23.20;99.90
9800;DHT22;4939;52.00085300;4.17406100;2023-07-28T10:22:06;23.00;99.90
9800;DHT22;4939;52.00085300;4.17406100;2023-07-28T10:24:55;23.10;99.90
9800;DHT22;4939;52.00085300;4.17406100;2023-07-28T10:27:38;23.00;99.90
9800;DHT22;4939;52.00085300;4.17406100;2023-07-28T10:30:10;23.20;99.90
9800;DHT22;4939;52.00085300;4.17406100;2023-07-28T10:32:42;23.40;99.90
9800;DHT22;4939;52.00085300;4.17406100;2023-07-28T10:37:37;23.50;99.90
9800;DHT22;4939;52.00085300;4.17406100;2023-07-28T10:40:34;23.60;99.90
9800;DHT22;4939;52.00085300;4.17406100;2023-07-28T10:43:04;23.90;99.90
9800;DHT22;4939;52.00085300;4.17406100;2023-07-28T10:45:32;23.70;99.90
9800;DHT22;4939;52.00085300;4.17406100;2023-07-28T10:47:59;23.90;99.90
9800;DHT22;4939;52.00085300;4.17406100;2023-07-28T10:50:30;23.70;99.90
9800;DHT22;4939;52.00085300;4.17406100;2023-07-28T10:52:57;23.80;99.90
9800;DHT22;4939;52.00085300;4.17406100;2023-07-28T10:55:24;23.50;99.90
9800;DHT22;4939;52.00085300;4.17406100;2023-07-28T10:57:51;23.10;99.90
9800;DHT22;4939;52.00085300;4.17406100;2023-07-28T11:00:19;22.90;99.90
9800;DHT22;4939;52.00085300;4.17406100;2023-07-28T11:02:45;22.80;99.90
9800;DHT22;4939;52.00085300;4.17406100;2023-07-28T11:05:23;22.90;99.90
9800;DHT22;4939;52.00085300;4.17406100;2023-07-28T11:07:54;22.80;99.90
9800;DHT22;4939;52.00085300;4.17406100;2023-07-28T11:10:20;23.00;99.90
9800;DHT22;4939;52.00085300;4.17406100;2023-07-28T11:12:48;22.90;99.90
9800;DHT22;4939;52.00085300;4.17406100;2023-07-28T11:15:15;22.60;99.90
9800;DHT22;4939;52.00085300;4.17406100;2023-07-28T11:17:43;22.40;99.90
9800;DHT22;4939;52.00085300;4.17406100;2023-07-28T11:20:24;22.30;99.90
9800;DHT22;4939;52.00085300;4.17406100;2023-07-28T11:22:58;22.10;99.90
9800;DHT22;4939;52.00085300;4.17406100;2023-07-28T11:25:25;22.10;99.90
9800;DHT22;4939;52.00085300;4.17406100;2023-07-28T11:27:51;22.20;99.90
9800;DHT22;4939;52.00085300;4.17406100;2023-07-28T11:30:19;22.40;99.90
9800;DHT22;4939;52.00085300;4.17406100;2023-07-28T11:32:47;22.60;99.90
9800;DHT22;4939;52.00085300;4.17406100;2023-07-28T11:35:14;22.60;99.90
9800;DHT22;4939;52.00085300;4.17406100;2023-07-28T11:37:42;21.80;99.90
9800;DHT22;4939;52.00085300;4.17406100;2023-07-28T11:40:09;22.30;99.90
9800;DHT22;4939;52.00085300;4.17406100;2023-07-28T11:42:39;22.10;99.90
9800;DHT22;4939;52.00085300;4.17406100;2023-07-28T11:45:07;21.90;99.90
9800;DHT22;4939;52.00085300;4.17406100;2023-07-28T11:47:35;22.00;99.90
9800;DHT22;4939;52.00085300;4.17406100;2023-07-28T11:50:02;22.00;99.90
9800;DHT22;4939;52.00085300;4.17406100;2023-07-28T11:52:32;21.90;99.90
9800;DHT22;4939;52.00085300;4.17406100;2023-07-28T11:55:05;23.10;99.90
9800;DHT22;4939;52.00085300;4.17406100;2023-07-28T11:57:32;21.90;99.90
9800;DHT22;4939;52.00085300;4.17406100;2023-07-28T12:00:04;21.80;99.90
9800;DHT22;4939;52.00085300;4.17406100;2023-07-28T12:02:31;21.80;99.90
9800;DHT22;4939;52.00085300;4.17406100;2023-07-28T12:04:59;21.70;99.90
9800;DHT22;4939;52.00085300;4.17406100;2023-07-28T12:07:30;21.60;99.90
9800;DHT22;4939;52.00085300;4.17406100;2023-07-28T12:09:56;21.60;99.90
9800;DHT22;4939;52.00085300;4.17406100;2023-07-28T12:12:27;21.60;99.90
9800;DHT22;4939;52.00085300;4.17406100;2023-07-28T12:14:57;21.70;99.90
9800;DHT22;4939;52.00085300;4.17406100;2023-07-28T12:17:30;22.10;99.90
9800;DHT22;4939;52.00085300;4.17406100;2023-07-28T12:19:58;22.40;99.90
9800;DHT22;4939;52.00085300;4.17406100;2023-07-28T12:22:25;22.70;99.90
9800;DHT22;4939;52.00085300;4.17406100;2023-07-28T12:24:50;23.40;99.90
9800;DHT22;4939;52.00085300;4.17406100;2023-07-28T12:27:16;22.90;99.90
9800;DHT22;4939;52.00085300;4.17406100;2023-07-28T12:29:42;22.70;99.90
9800;DHT22;4939;52.00085300;4.17406100;2023-07-28T12:32:07;22.80;99.90
9800;DHT22;4939;52.00085300;4.17406100;2023-07-28T12:34:34;22.80;99.90
9800;DHT22;4939;52.00085300;4.17406100;2023-07-28T12:37:00;22.70;99.90
9800;DHT22;4939;52.00085300;4.17406100;2023-07-28T12:39:25;22.80;99.90
9800;DHT22;4939;52.00085300;4.17406100;2023-07-28T12:41:51;22.70;99.90
9800;DHT22;4939;52.00085300;4.17406100;2023-07-28T12:44:20;22.70;99.90
9800;DHT22;4939;52.00085300;4.17406100;2023-07-28T12:46:46;22.50;99.90
9800;DHT22;4939;52.00085300;4.17406100;2023-07-28T12:49:11;22.70;99.90
9800;DHT22;4939;52.00085300;4.17406100;2023-07-28T12:51:37;22.60;99.90
9800;DHT22;4939;52.00085300;4.17406100;2023-07-28T12:54:03;22.60;99.90
9800;DHT22;4939;52.00085300;4.17406100;2023-07-28T12:56:30;22.90;99.90
9800;DHT22;4939;52.00085300;4.17406100;2023-07-28T12:58:55;22.60;99.90
9800;DHT22;4939;52.00085300;4.17406100;2023-07-28T13:01:21;22.60;99.90
9800;DHT22;4939;52.00085300;4.17406100;2023-07-28T13:03:47;22.50;99.90
9800;DHT22;4939;52.00085300;4.17406100;2023-07-28T13:06:12;22.40;99.90
9800;DHT22;4939;52.00085300;4.17406100;2023-07-28T13:08:38;22.30;99.90
9800;DHT22;4939;52.00085300;4.17406100;2023-07-28T13:11:04;22.40;99.90
9800;DHT22;4939;52.00085300;4.17406100;2023-07-28T13:13:30;22.50;99.90
9800;DHT22;4939;52.00085300;4.17406100;2023-07-28T13:15:56;22.70;99.90
9800;DHT22;4939;52.00085300;4.17406100;2023-07-28T13:18:23;22.80;99.90
9800;DHT22;4939;52.00085300;4.17406100;2023-07-28T13:20:50;22.80;99.90
9800;DHT22;4939;52.00085300;4.17406100;2023-07-28T13:23:15;23.00;99.90
9800;DHT22;4939;52.00085300;4.17406100;2023-07-28T13:25:41;23.10;99.90
9800;DHT22;4939;52.00085300;4.17406100;2023-07-28T13:28:06;22.90;99.90
9800;DHT22;4939;52.00085300;4.17406100;2023-07-28T13:30:32;22.80;99.90
9800;DHT22;4939;52.00085300;4.17406100;2023-07-28T13:32:58;22.90;99.90
9800;DHT22;4939;52.00085300;4.17406100;2023-07-28T13:35:23;23.00;99.90
9800;DHT22;4939;52.00085300;4.17406100;2023-07-28T13:37:50;23.10;99.90
9800;DHT22;4939;52.00085300;4.17406100;2023-07-28T13:40:15;23.20;99.90
9800;DHT22;4939;52.00085300;4.17406100;2023-07-28T13:42:41;23.30;99.90
9800;DHT22;4939;52.00085300;4.17406100;2023-07-28T13:45:08;23.20;99.90
9800;DHT22;4939;52.00085300;4.17406100;2023-07-28T13:47:34;23.20;99.90
9800;DHT22;4939;52.00085300;4.17406100;2023-07-28T13:50:00;22.90;99.90